Terminal Aerodrome Forecast
Issued by NWS Charleston, WV

Current Version | Previous Version | Text Only | Print | Product List | Glossary Off
Versions: 1 2 3 4 5 6 7 8 9 10 11 12 13 14 15 16 17 18 19 20 21 22 23 24 25

107
FTUS41 KRLX 302338
TAFBKW
TAF
KBKW 302338Z 0100/0124 14011KT 6SM SHRA BR OVC035
     FM010300 15011KT 6SM BR OVC025
     FM010700 15010KT 4SM SHRA BR SCT008 OVC015
     FM011100 18008KT 6SM SHRA OVC015
     FM011400 21008KT P6SM SHRA BKN035
     FM011600 22008KT P6SM SHRA VCTS BKN040CB=

USA.gov is the U.S. government's official web portal to all federal, state and local government web resources and services.